Terminal Aerodrome Forecast
Issued by NWS

Current Version | Previous Version | Text Only | Print | Product List | Glossary On
Versions: 1 2 3 4 5 6 7 8 9 10 11 12 13 14 15 16 17
771
FTUS43 KSGF 211720
TAFJLN
TAF
KJLN 211720Z 2118/2218 18019G27KT P6SM BKN045
     FM220000 16018G26KT P6SM SCT035 BKN070 WS020/17035KT
     FM220300 21017G25KT 6SM -SHRA BR VCTS OVC020CB WS020/19045KT
      TEMPO 2203/2206 30030G40KT 2SM +TSRA BR OVC020CB
     FM220600 32013KT 5SM SHRA BR VCTS OVC015CB
     FM220900 32009KT P6SM OVC015
     FM221400 32013G21KT P6SM BKN100=

USA.gov is the U.S. government's official web portal to all federal, state and local government web resources and services.